Decoded Metar for KEMV (EMPORIA in VA, USA) (IATA:EMV) | Meteo·Mobile Aviation Weather
aviador You're here:

KEMV Decoded Metar

EMPORIA in VA, USA
Report Time2019-04-23 16:15:00
UTC Time2019-04-23 16:41:36
Flight Rules vfr VFR
Wind170° at 05 kt
W.Decomp.*RWY 15: 4.3 kt HW 2.5 kt RCW
Visibility9999 m
Phenomena:N/A
Clouds:N/A
Expected CloudBase > 5,600 ft AGL from Temp-Dew spread
CeilingNone
Temp24°C (ISA +9)
Dew Point10°C (41% RH)
AAT22.2°C
QNH1018 hPa
Density Alt1,201 ft
Elevation128 ft
Report Wrong Elevation
Raw Report
METAR KEMV 231615Z AUTO 17005KT 10SM CLR 24/10 A3007 RMK AO2 T02420095=

Extra information for KEMV:More info

Metar Taf Metar & Taf Last 4 Metars F.Rules Stats Wind Profile Meteogram Temp Stats Airport Information Weather charts Add Link Nearby VenuesMetar ALERT Operation Metar Decoded Social comments

AIRNAV info for KEMV